Hauptseite
METAR-TAF:

METAR-TAF

Flughäfen :

Flughafen Castres-Mazamet

Castres, Frankreich

Breite: 43-33-25N, Länge: 2-17-21E, Höhe: 239 m

Beobachtung

Neuester Wetterbericht von vor 34 Minuten, um 06:30 UTC
Wind 1 kt aus unterschiedlichen Richtungen
Temperatur 21°C
Luftfeuchtigkeit 69%
Luftdruck 1018 hPa
Sichtweite 10 km oder mehr
keine Wolken unter 1500 m und keine Kumulonimbus oder Gewitterwolken

METAR: LFCK 180630Z AUTO VRB01KT CAVOK 21/15 Q1018 NOSIG

Zeit: 09:04 (07:04 UTC)

Prognose

Neuester Wetterbericht von vor 2 Stunden und 4 Minuten, um 05:00 UTC
Gültige Prognose vom 18 um 06 UTC bis 18 um 15 UTC
Wind 5 kt aus Ost/Südost
Sichtweite 10 km oder mehr
keine Wolken unter 1500 m und keine Kumulonimbus oder Gewitterwolken

TAF: LFCK 180500Z 1806/1815 11005KT CAVOK

Wetterbeobachtungen und Prognosen von mehr als 4000 Flughäfen (METAR und TAF Bericht).

Die verfügbaren Stationen werden durch gelbe und rote Markierungen auf der Karte dargestellt.

Führen Sie die Maus auf sie, um den Namen der Station zu sehen.

Darauf klicken, um die Beobachtung von Wetterbeobachtungen und Prognosen zu sehen.

Um die Karte zu ändern : klicken Sie auf den grünen Tasten mit einem schwarzen Kreuz Zum Vergrößern, auf den grünen Button mit einem Gedankenstrich zu verkleinern, oder auf die grünen Pfeile für benachbarte Karten.


METAR-TAF: